createdAt,value
2022-08-22T00:00:43.764Z,88.17
2022-08-22T00:01:43.276Z,88.27
2022-08-22T00:02:43.289Z,77.67
2022-08-22T00:02:45.528Z,76.16
2022-08-22T00:02:47.028Z,81.01
2022-08-22T00:02:49.989Z,82.71
2022-08-22T00:02:55.723Z,87.30
2022-08-22T00:02:57.280Z,70.11
2022-08-22T00:02:59.184Z,86.68
2022-08-22T00:03:00.574Z,81.45
2022-08-22T00:03:01.583Z,71.53
2022-08-22T00:03:09.241Z,80.72
2022-08-22T00:03:43.294Z,87.98
2022-08-22T00:04:43.255Z,88.13
2022-08-22T00:05:43.283Z,88.04
2022-08-22T00:06:43.320Z,88.08
2022-08-22T00:07:43.249Z,88.27
2022-08-22T00:08:43.232Z,88.32
2022-08-22T00:09:43.263Z,88.08
2022-08-22T00:10:43.256Z,88.27
2022-08-22T00:11:43.272Z,88.75
2022-08-22T00:12:43.263Z,87.98
2022-08-22T00:13:43.228Z,88.17
2022-08-22T00:14:43.223Z,87.98
2022-08-22T00:15:44.268Z,88.56
2022-08-22T00:16:43.209Z,88.46
2022-08-22T00:17:43.246Z,89.14
2022-08-22T00:18:43.204Z,88.65
2022-08-22T00:19:43.228Z,88.75
2022-08-22T00:20:43.210Z,88.95
2022-08-22T00:21:43.237Z,88.71
2022-08-22T00:22:43.212Z,88.95
2022-08-22T00:23:43.196Z,88.95
2022-08-22T00:24:43.191Z,89.19
2022-08-22T00:25:43.208Z,88.81
2022-08-22T00:26:45.394Z,89.58
2022-08-22T00:27:45.183Z,89.77
2022-08-22T00:28:43.192Z,89.19
2022-08-22T00:29:43.440Z,89.58
2022-08-22T00:30:43.192Z,88.71
2022-08-22T00:31:43.173Z,88.90
2022-08-22T00:32:43.180Z,89.48
2022-08-22T00:33:43.182Z,89.77
2022-08-22T00:34:43.184Z,89.77
2022-08-22T00:35:45.215Z,89.58
2022-08-22T00:36:43.160Z,89.96
2022-08-22T00:37:43.172Z,89.67
2022-08-22T00:38:43.141Z,89.48
2022-08-22T00:39:43.205Z,90.40
2022-08-22T00:40:43.139Z,90.78
2022-08-22T00:41:43.143Z,90.50
2022-08-22T00:42:43.153Z,90.11
2022-08-22T00:43:43.131Z,90.44
2022-08-22T00:44:43.173Z,90.30
2022-08-22T00:45:43.121Z,90.88
2022-08-22T00:46:43.147Z,90.69
2022-08-22T00:47:43.154Z,90.88
2022-08-22T00:48:43.124Z,90.97
2022-08-22T00:49:43.108Z,91.27
2022-08-22T00:50:43.125Z,91.46
2022-08-22T00:51:43.109Z,90.78
2022-08-22T00:52:43.129Z,90.97
2022-08-22T00:53:43.099Z,90.78
2022-08-22T00:54:43.130Z,90.69
2022-08-22T00:55:43.097Z,91.65
2022-08-22T00:56:45.156Z,91.46
2022-08-22T00:57:43.124Z,91.27
2022-08-22T00:58:43.103Z,91.46
2022-08-22T00:59:43.093Z,91.36
2022-08-22T01:00:43.109Z,90.97
2022-08-22T01:01:43.069Z,91.27
2022-08-22T01:02:43.084Z,91.27
2022-08-22T01:03:43.104Z,91.75
2022-08-22T01:04:43.090Z,91.36
2022-08-22T01:05:43.060Z,91.46
2022-08-22T01:06:43.077Z,91.07
2022-08-22T01:07:43.063Z,91.46
2022-08-22T01:08:43.084Z,91.55
2022-08-22T01:09:43.076Z,91.27
2022-08-22T01:10:43.068Z,91.46
2022-08-22T01:11:43.043Z,91.55
2022-08-22T01:12:43.052Z,91.36
2022-08-22T01:13:43.030Z,91.94
2022-08-22T01:14:43.046Z,91.46
2022-08-22T01:15:43.027Z,91.36
2022-08-22T01:16:43.038Z,92.03
2022-08-22T01:17:43.022Z,91.94
2022-08-22T01:18:43.016Z,92.42
2022-08-22T01:19:43.001Z,92.61
2022-08-22T01:20:43.024Z,92.08
2022-08-22T01:21:42.999Z,91.75
2022-08-22T01:22:42.992Z,92.13
2022-08-22T01:23:43.017Z,92.42
2022-08-22T01:24:42.983Z,92.32
2022-08-22T01:25:42.981Z,92.52
2022-08-22T01:26:44.680Z,92.61
2022-08-22T01:27:43.010Z,92.42
2022-08-22T01:28:42.991Z,92.38
2022-08-22T01:29:42.967Z,92.38
2022-08-22T01:30:42.968Z,92.38
2022-08-22T01:31:42.960Z,92.47
2022-08-22T01:32:42.953Z,92.38
2022-08-22T01:33:42.988Z,91.99
2022-08-22T01:34:42.960Z,92.47
2022-08-22T01:35:42.967Z,92.57
2022-08-22T01:36:42.977Z,93.24
2022-08-22T01:37:43.611Z,92.76
2022-08-22T01:38:42.947Z,93.05
2022-08-22T01:39:42.951Z,93.43
2022-08-22T01:40:53.587Z,93.24
2022-08-22T01:41:42.961Z,93.43
2022-08-22T01:42:42.914Z,93.43
2022-08-22T01:43:51.514Z,93.33
2022-08-22T01:44:42.911Z,93.53
2022-08-22T01:45:42.920Z,93.62
2022-08-22T01:46:42.931Z,94.01
2022-08-22T01:47:42.937Z,93.91
2022-08-22T01:48:42.894Z,93.91
2022-08-22T01:49:42.911Z,93.91
2022-08-22T01:50:42.893Z,94.01
2022-08-22T01:51:42.924Z,93.62
2022-08-22T01:52:42.882Z,93.33
2022-08-22T01:53:42.895Z,93.33
2022-08-22T01:54:42.887Z,93.24
2022-08-22T01:55:42.881Z,93.62
2022-08-22T01:56:42.887Z,93.62
2022-08-22T01:57:42.892Z,93.43
2022-08-22T01:58:42.885Z,93.43
2022-08-22T01:59:42.967Z,93.82
2022-08-22T02:00:42.871Z,93.62
2022-08-22T02:01:42.850Z,94.25
2022-08-22T02:02:42.867Z,94.73
2022-08-22T02:03:42.877Z,94.68
2022-08-22T02:04:42.872Z,94.73
2022-08-22T02:05:42.868Z,94.92
2022-08-22T02:06:42.826Z,94.73
2022-08-22T02:07:42.865Z,95.02
2022-08-22T02:08:42.814Z,94.73
2022-08-22T02:09:42.812Z,94.97
2022-08-22T02:10:42.836Z,95.36
2022-08-22T02:11:42.835Z,95.07
2022-08-22T02:12:42.823Z,95.02
2022-08-22T02:13:42.803Z,95.31
2022-08-22T02:14:42.810Z,95.21
2022-08-22T02:15:43.985Z,94.92
2022-08-22T02:16:42.820Z,95.31
2022-08-22T02:17:42.811Z,95.02
2022-08-22T02:18:42.803Z,95.98
2022-08-22T02:19:42.812Z,95.84
2022-08-22T02:20:42.768Z,96.17
2022-08-22T02:21:42.793Z,96.80
2022-08-22T02:22:44.582Z,96.27
2022-08-22T02:23:42.760Z,96.61
2022-08-22T02:24:42.750Z,96.22
2022-08-22T02:25:42.772Z,96.51
2022-08-22T02:26:42.763Z,96.66
2022-08-22T02:27:42.761Z,96.56
2022-08-22T02:28:56.622Z,96.75
2022-08-22T02:29:42.741Z,96.85
2022-08-22T02:30:42.739Z,96.17
2022-08-22T02:31:42.744Z,96.85
2022-08-22T02:32:42.723Z,96.75
2022-08-22T02:33:42.734Z,95.89
2022-08-22T02:34:42.736Z,96.47
2022-08-22T02:35:42.723Z,95.89
2022-08-22T02:36:42.754Z,96.08
2022-08-22T02:37:42.721Z,95.60
2022-08-22T02:38:42.739Z,95.98
2022-08-22T02:39:42.805Z,95.70
2022-08-22T02:40:42.728Z,96.08
2022-08-22T02:41:42.704Z,95.89
2022-08-22T02:42:42.717Z,96.27
2022-08-22T02:43:42.698Z,96.17
2022-08-22T02:44:42.683Z,95.89
2022-08-22T02:45:42.688Z,95.98
2022-08-22T02:46:42.687Z,95.79
2022-08-22T02:47:42.701Z,96.66
2022-08-22T02:48:42.684Z,96.37
2022-08-22T02:49:43.969Z,96.66
2022-08-22T02:50:42.689Z,96.75
2022-08-22T02:51:42.652Z,96.66
2022-08-22T02:52:42.681Z,97.14
2022-08-22T02:53:42.666Z,96.80
2022-08-22T02:54:42.663Z,96.66
2022-08-22T02:55:42.647Z,97.09
2022-08-22T02:56:42.637Z,96.90
2022-08-22T02:57:42.640Z,96.80
2022-08-22T02:58:42.623Z,97.19
2022-08-22T02:59:42.623Z,97.09
2022-08-22T03:00:42.673Z,98.05
2022-08-22T03:01:42.615Z,97.67
2022-08-22T03:02:42.648Z,97.86
2022-08-22T03:03:42.605Z,98.05
2022-08-22T03:04:42.605Z,97.67
2022-08-22T03:05:42.598Z,98.05
2022-08-22T03:06:42.622Z,98.44
2022-08-22T03:07:42.586Z,98.05
2022-08-22T03:08:47.348Z,98.24
2022-08-22T03:09:42.614Z,97.86
2022-08-22T03:10:42.613Z,97.96
2022-08-22T03:11:42.575Z,97.86
2022-08-22T03:12:42.578Z,98.05
2022-08-22T03:13:42.613Z,97.96
2022-08-22T03:14:42.560Z,98.05
2022-08-22T03:15:43.603Z,97.76
2022-08-22T03:16:42.556Z,97.86
2022-08-22T03:17:42.547Z,97.86
2022-08-22T03:18:42.558Z,97.96
2022-08-22T03:19:42.561Z,97.67
2022-08-22T03:20:42.533Z,97.47
2022-08-22T03:21:42.546Z,97.57
2022-08-22T03:22:42.535Z,97.96
2022-08-22T03:23:42.526Z,97.96
2022-08-22T03:24:42.555Z,97.96
2022-08-22T03:25:42.512Z,97.86
2022-08-22T03:26:42.510Z,98.24
2022-08-22T03:27:42.509Z,97.96
2022-08-22T03:28:52.700Z,98.14
2022-08-22T03:29:42.495Z,98.05
2022-08-22T03:30:42.533Z,98.34
2022-08-22T03:31:42.517Z,98.63
2022-08-22T03:32:42.503Z,98.82
2022-08-22T03:33:42.495Z,98.91
2022-08-22T03:34:42.498Z,99.06
2022-08-22T03:35:42.492Z,98.91
2022-08-22T03:36:42.483Z,99.01
2022-08-22T03:37:42.480Z,98.86
2022-08-22T03:38:42.460Z,98.44
2022-08-22T03:39:42.528Z,98.82
2022-08-22T03:40:42.629Z,98.48
2022-08-22T03:41:42.445Z,98.86
2022-08-22T03:42:42.452Z,98.96
2022-08-22T03:43:42.450Z,98.96
2022-08-22T03:44:42.478Z,99.06
2022-08-22T03:45:42.451Z,99.25
2022-08-22T03:46:42.427Z,99.83
2022-08-22T03:47:42.421Z,99.99
2022-08-22T03:48:42.411Z,99.99
2022-08-22T03:49:42.425Z,99.99
2022-08-22T03:50:42.430Z,99.99
2022-08-22T03:51:42.402Z,99.99
2022-08-22T03:52:42.411Z,99.99
2022-08-22T03:53:42.437Z,99.99
2022-08-22T03:54:42.401Z,99.99
2022-08-22T03:55:42.390Z,99.99
2022-08-22T03:56:42.382Z,99.99
2022-08-22T03:57:42.376Z,99.99
2022-08-22T03:58:42.417Z,99.99
2022-08-22T03:59:42.604Z,99.99
2022-08-22T04:00:42.387Z,99.99
2022-08-22T04:01:42.354Z,99.99
2022-08-22T04:02:44.260Z,99.99
2022-08-22T04:03:42.350Z,99.99
2022-08-22T04:04:42.362Z,99.99
2022-08-22T04:05:42.380Z,99.99
2022-08-22T04:06:42.368Z,99.99
2022-08-22T04:07:42.788Z,99.99
2022-08-22T04:08:43.913Z,99.99
2022-08-22T04:09:42.321Z,99.99
2022-08-22T04:10:42.347Z,99.99
2022-08-22T04:11:42.342Z,99.99
2022-08-22T04:12:42.335Z,99.99
2022-08-22T04:13:42.308Z,99.99
2022-08-22T04:14:42.327Z,99.99
2022-08-22T04:15:42.302Z,99.99
2022-08-22T04:16:42.295Z,99.99
2022-08-22T04:17:42.360Z,99.99
2022-08-22T04:18:42.340Z,99.99
2022-08-22T04:19:42.294Z,99.99
2022-08-22T04:20:42.305Z,99.99
2022-08-22T04:21:42.274Z,99.99
2022-08-22T04:22:42.270Z,99.99
2022-08-22T04:23:42.272Z,99.99
2022-08-22T04:24:42.297Z,99.99
2022-08-22T04:25:42.266Z,99.99
2022-08-22T04:26:42.290Z,99.99
2022-08-22T04:27:42.252Z,99.99
2022-08-22T04:28:42.241Z,99.99
2022-08-22T04:29:42.244Z,99.99
2022-08-22T04:30:42.233Z,99.99
2022-08-22T04:31:42.251Z,99.99
2022-08-22T04:32:42.246Z,99.99
2022-08-22T04:33:42.219Z,99.99
2022-08-22T04:34:42.241Z,99.99
2022-08-22T04:35:42.231Z,99.99
2022-08-22T04:36:42.212Z,99.99
2022-08-22T04:37:42.196Z,99.99
2022-08-22T04:38:42.233Z,99.99
2022-08-22T04:39:42.236Z,99.99
2022-08-22T04:40:42.219Z,99.99
2022-08-22T04:41:42.182Z,99.99
2022-08-22T04:42:42.194Z,99.99
2022-08-22T04:43:42.206Z,99.99
2022-08-22T04:44:42.177Z,99.99
2022-08-22T04:45:42.174Z,99.99
2022-08-22T04:46:42.189Z,99.99
2022-08-22T04:47:42.162Z,99.99
2022-08-22T04:48:42.177Z,99.99
2022-08-22T04:49:42.156Z,99.99
2022-08-22T04:50:43.290Z,99.99
2022-08-22T04:51:42.157Z,99.99
2022-08-22T04:52:42.154Z,99.99
2022-08-22T04:53:42.141Z,99.99
2022-08-22T04:54:42.150Z,99.99
2022-08-22T04:55:42.157Z,99.99
2022-08-22T04:56:42.110Z,99.99
2022-08-22T04:57:42.115Z,99.99
2022-08-22T04:58:42.146Z,99.99
2022-08-22T04:59:42.145Z,99.99
2022-08-22T05:00:42.151Z,99.99
2022-08-22T05:01:42.205Z,99.99
2022-08-22T05:02:42.101Z,99.99
2022-08-22T05:03:44.955Z,99.99
2022-08-22T05:04:42.075Z,99.99
2022-08-22T05:05:42.103Z,99.99
2022-08-22T05:06:42.094Z,99.99
2022-08-22T05:07:42.058Z,99.99
2022-08-22T05:08:42.081Z,99.99
2022-08-22T05:09:42.103Z,99.99
2022-08-22T05:10:42.062Z,99.99
2022-08-22T05:11:42.080Z,99.99
2022-08-22T05:12:42.042Z,99.99
2022-08-22T05:13:42.092Z,99.99
2022-08-22T05:14:42.064Z,99.99
2022-08-22T05:15:42.054Z,99.99
2022-08-22T05:16:42.028Z,99.99
2022-08-22T05:17:42.049Z,99.99
2022-08-22T05:18:42.043Z,99.99
2022-08-22T05:19:42.035Z,99.99
2022-08-22T05:20:42.033Z,99.99
2022-08-22T05:21:42.040Z,99.99
2022-08-22T05:22:42.016Z,99.99
2022-08-22T05:23:42.012Z,99.99
2022-08-22T05:24:42.017Z,99.99
2022-08-22T05:25:41.989Z,99.99
2022-08-22T05:26:41.992Z,99.99
2022-08-22T05:27:41.989Z,99.99
2022-08-22T05:28:41.988Z,99.99
2022-08-22T05:29:41.963Z,99.99
2022-08-22T05:30:41.986Z,99.99
2022-08-22T05:31:41.969Z,99.99
2022-08-22T05:32:41.956Z,99.99
2022-08-22T05:33:41.946Z,99.99
2022-08-22T05:34:41.971Z,99.99
2022-08-22T05:35:43.976Z,99.99
2022-08-22T05:36:41.966Z,99.99
2022-08-22T05:37:41.947Z,99.99
2022-08-22T05:38:41.956Z,99.99
2022-08-22T05:39:41.956Z,99.99
2022-08-22T05:40:41.931Z,99.99
2022-08-22T05:41:41.938Z,99.99
2022-08-22T05:42:41.936Z,99.99
2022-08-22T05:43:41.921Z,99.99
2022-08-22T05:44:41.891Z,99.99
2022-08-22T05:45:41.910Z,99.99
2022-08-22T05:46:41.919Z,99.99
2022-08-22T05:47:41.879Z,99.99
2022-08-22T05:48:41.903Z,99.99
2022-08-22T05:49:41.886Z,99.99
2022-08-22T05:50:41.862Z,99.99
2022-08-22T05:51:41.868Z,99.99
2022-08-22T05:52:41.851Z,99.99
2022-08-22T05:53:41.873Z,99.99
2022-08-22T05:54:41.866Z,99.99
2022-08-22T05:55:41.870Z,99.99
2022-08-22T05:56:41.851Z,99.99
2022-08-22T05:57:41.832Z,99.99
2022-08-22T05:58:41.867Z,99.99
2022-08-22T05:59:41.867Z,99.99
2022-08-22T06:00:41.846Z,99.99
2022-08-22T06:01:41.906Z,99.99
2022-08-22T06:02:41.833Z,99.99
2022-08-22T06:03:41.842Z,99.99
2022-08-22T06:04:41.823Z,99.99
2022-08-22T06:05:41.817Z,99.99
2022-08-22T06:06:41.806Z,99.99
2022-08-22T06:07:41.794Z,99.99
2022-08-22T06:08:41.785Z,99.99
2022-08-22T06:09:41.803Z,99.99
2022-08-22T06:10:41.800Z,99.99
2022-08-22T06:11:41.773Z,99.99
2022-08-22T06:12:43.187Z,99.99
2022-08-22T06:13:41.798Z,99.99
2022-08-22T06:14:41.775Z,99.99
2022-08-22T06:15:41.756Z,99.99
2022-08-22T06:16:47.364Z,99.99
2022-08-22T06:17:41.784Z,99.99
2022-08-22T06:18:41.753Z,99.99
2022-08-22T06:19:41.766Z,99.99
2022-08-22T06:20:41.733Z,99.99
2022-08-22T06:21:41.749Z,99.99
2022-08-22T06:22:41.738Z,99.99
2022-08-22T06:23:41.729Z,99.99
2022-08-22T06:24:41.728Z,99.99
2022-08-22T06:25:41.725Z,99.99
2022-08-22T06:26:41.729Z,99.99
2022-08-22T06:27:41.711Z,99.99
2022-08-22T06:28:54.523Z,99.99
2022-08-22T06:29:41.712Z,99.99
2022-08-22T06:30:41.720Z,99.99
2022-08-22T06:31:41.693Z,99.99
2022-08-22T06:32:59.280Z,99.99
2022-08-22T06:33:45.797Z,99.99
2022-08-22T06:34:41.686Z,99.99
2022-08-22T06:35:41.668Z,99.99
2022-08-22T06:36:41.668Z,99.99
2022-08-22T06:37:41.683Z,99.99
2022-08-22T06:38:41.665Z,99.99
2022-08-22T06:39:41.751Z,99.99
2022-08-22T06:40:41.649Z,99.99
2022-08-22T06:41:41.658Z,99.99
2022-08-22T06:42:41.667Z,99.99
2022-08-22T06:43:41.696Z,99.99
2022-08-22T06:44:41.647Z,99.99
2022-08-22T06:45:41.644Z,99.99
2022-08-22T06:46:41.642Z,99.99
2022-08-22T06:47:41.630Z,99.99
2022-08-22T06:48:41.649Z,99.99
2022-08-22T06:49:41.650Z,99.99
2022-08-22T06:50:41.610Z,99.99
2022-08-22T06:51:41.631Z,99.88
2022-08-22T06:52:41.601Z,98.39
2022-08-22T06:53:47.833Z,97.62
2022-08-22T06:54:41.616Z,95.94
2022-08-22T06:55:41.693Z,95.11
2022-08-22T06:56:41.581Z,93.71
2022-08-22T06:57:41.579Z,93.37
2022-08-22T06:58:41.595Z,91.74
2022-08-22T06:59:41.586Z,91.35
2022-08-22T07:00:41.598Z,91.30
2022-08-22T07:01:41.639Z,91.30
2022-08-22T07:02:41.607Z,90.33
2022-08-22T07:03:41.631Z,89.99
2022-08-22T07:04:41.579Z,89.22
2022-08-22T07:05:41.572Z,88.39
2022-08-22T07:06:41.572Z,88.49
2022-08-22T07:07:41.581Z,87.71
2022-08-22T07:08:41.553Z,87.66
2022-08-22T07:09:41.564Z,87.37
2022-08-22T07:10:41.553Z,85.77
2022-08-22T07:11:41.574Z,84.71
2022-08-22T07:12:41.590Z,85.00
2022-08-22T07:13:41.599Z,84.52
2022-08-22T07:14:41.607Z,85.19
2022-08-22T07:15:41.584Z,85.39
2022-08-22T07:16:41.562Z,84.71
2022-08-22T07:17:41.554Z,84.13
2022-08-22T07:18:41.541Z,83.64
2022-08-22T07:19:41.570Z,83.94
2022-08-22T07:20:41.526Z,83.69
2022-08-22T07:21:41.545Z,82.72
2022-08-22T07:22:41.554Z,81.95
2022-08-22T07:23:41.520Z,82.04
2022-08-22T07:24:41.542Z,81.71
2022-08-22T07:25:41.532Z,82.14
2022-08-22T07:26:41.554Z,82.72
2022-08-22T07:27:41.548Z,82.43
2022-08-22T07:28:41.589Z,82.81
2022-08-22T07:29:41.584Z,82.62
2022-08-22T07:30:41.523Z,82.33
2022-08-22T07:31:41.522Z,83.30
2022-08-22T07:32:41.582Z,83.78
2022-08-22T07:33:41.552Z,83.49
2022-08-22T07:34:41.560Z,83.30
2022-08-22T07:35:41.559Z,82.72
2022-08-22T07:36:41.545Z,82.72
2022-08-22T07:37:41.573Z,83.45
2022-08-22T07:38:41.512Z,83.40
2022-08-22T07:39:41.609Z,83.55
2022-08-22T07:40:41.517Z,83.88
2022-08-22T07:41:41.511Z,83.15
2022-08-22T07:42:41.542Z,82.76
2022-08-22T07:43:41.511Z,82.76
2022-08-22T07:44:41.537Z,82.76
2022-08-22T07:45:41.510Z,82.47
2022-08-22T07:46:41.531Z,82.60
2022-08-22T07:47:41.547Z,82.03
2022-08-22T07:49:05.861Z,81.93
2022-08-22T07:49:45.927Z,81.64
2022-08-22T07:50:41.569Z,82.12
2022-08-22T07:51:41.517Z,81.98
2022-08-22T07:52:41.540Z,82.66
2022-08-22T07:53:41.569Z,82.72
2022-08-22T07:54:41.574Z,82.72
2022-08-22T07:55:48.467Z,83.59
2022-08-22T07:56:41.562Z,84.41
2022-08-22T07:57:41.573Z,84.11
2022-08-22T07:58:41.555Z,83.34
2022-08-22T07:59:41.561Z,83.15
2022-08-22T08:00:41.613Z,83.15
2022-08-22T08:01:41.634Z,83.63
2022-08-22T08:02:41.543Z,83.83
2022-08-22T08:03:41.570Z,83.53
2022-08-22T08:04:41.588Z,82.86
2022-08-22T08:05:41.568Z,82.32
2022-08-22T08:06:41.565Z,82.47
2022-08-22T08:07:41.547Z,81.93
2022-08-22T08:08:41.551Z,81.70
2022-08-22T08:09:41.554Z,81.93
2022-08-22T08:10:41.554Z,81.70
2022-08-22T08:11:41.567Z,82.60
2022-08-22T08:12:41.581Z,82.12
2022-08-22T08:13:43.685Z,81.77
2022-08-22T08:14:41.608Z,81.68
2022-08-22T08:15:41.603Z,81.48
2022-08-22T08:16:41.617Z,80.80
2022-08-22T08:17:41.623Z,81.13
2022-08-22T08:18:41.578Z,80.36
2022-08-22T08:19:41.654Z,80.40
2022-08-22T08:20:41.594Z,80.01
2022-08-22T08:21:41.637Z,80.40
2022-08-22T08:22:41.584Z,79.53
2022-08-22T08:23:41.590Z,79.14
2022-08-22T08:24:42.594Z,78.56
2022-08-22T08:25:41.620Z,78.75
2022-08-22T08:26:41.628Z,79.14
2022-08-22T08:27:41.639Z,77.98
2022-08-22T08:28:41.644Z,78.85
2022-08-22T08:29:41.611Z,79.97
2022-08-22T08:30:41.634Z,79.78
2022-08-22T08:31:43.097Z,79.78
2022-08-22T08:32:41.705Z,79.88
2022-08-22T08:33:41.696Z,79.97
2022-08-22T08:34:41.697Z,79.88
2022-08-22T08:36:01.866Z,80.36
2022-08-22T08:36:41.671Z,79.88
2022-08-22T08:37:41.672Z,80.36
2022-08-22T08:38:41.679Z,80.62
2022-08-22T08:39:41.739Z,80.32
2022-08-22T08:40:41.700Z,80.42
2022-08-22T08:41:41.724Z,80.62
2022-08-22T08:42:41.718Z,80.62
2022-08-22T08:43:41.731Z,80.32
2022-08-22T08:44:41.681Z,80.32
2022-08-22T08:45:41.709Z,80.32
2022-08-22T08:46:41.688Z,80.17
2022-08-22T08:47:41.715Z,79.68
2022-08-22T08:48:41.677Z,79.88
2022-08-22T08:49:42.947Z,79.39
2022-08-22T08:50:43.175Z,79.39
2022-08-22T08:51:41.682Z,78.75
2022-08-22T08:52:41.682Z,78.21
2022-08-22T08:53:43.229Z,77.18
2022-08-22T08:54:41.698Z,76.98
2022-08-22T08:55:41.713Z,76.98
2022-08-22T08:56:44.945Z,76.31
2022-08-22T08:57:41.723Z,76.15
2022-08-22T08:58:41.706Z,76.15
2022-08-22T08:59:44.223Z,75.67
2022-08-22T09:00:41.716Z,74.98
2022-08-22T09:01:41.834Z,74.54
2022-08-22T09:02:42.567Z,74.69
2022-08-22T09:03:41.822Z,74.63
2022-08-22T09:04:41.790Z,73.85
2022-08-22T09:05:41.780Z,74.30
2022-08-22T09:07:41.775Z,73.79
2022-08-22T09:08:41.820Z,73.05
2022-08-22T09:09:41.763Z,73.15
2022-08-22T09:10:41.792Z,72.37
2022-08-22T09:11:41.837Z,71.88
2022-08-22T09:12:55.970Z,72.27
2022-08-22T09:13:41.815Z,71.01
2022-08-22T09:14:41.804Z,71.40
2022-08-22T09:15:41.821Z,70.91
2022-08-22T09:16:46.288Z,70.95
2022-08-22T09:17:41.841Z,70.65
2022-08-22T09:18:41.819Z,70.52
2022-08-22T09:19:41.869Z,71.01
2022-08-22T09:20:41.886Z,71.04
2022-08-22T09:21:41.853Z,70.95
2022-08-22T09:22:50.105Z,70.78
2022-08-22T09:23:41.854Z,70.17
2022-08-22T09:24:41.875Z,69.52
2022-08-22T09:25:41.893Z,70.53
2022-08-22T09:26:41.887Z,69.56
2022-08-22T09:27:41.905Z,69.03
2022-08-22T09:28:41.894Z,68.74
2022-08-22T09:29:51.384Z,68.64
2022-08-22T09:30:41.939Z,69.62
2022-08-22T09:31:51.502Z,69.17
2022-08-22T09:32:41.936Z,68.87
2022-08-22T09:33:41.964Z,68.90
2022-08-22T09:34:41.950Z,69.10
2022-08-22T09:35:41.963Z,68.52
2022-08-22T09:36:41.960Z,68.23
2022-08-22T09:37:41.961Z,68.35
2022-08-22T09:38:47.832Z,67.96
2022-08-22T09:39:41.987Z,67.77
2022-08-22T09:40:42.007Z,67.28
2022-08-22T09:41:41.984Z,68.00
2022-08-22T09:42:44.818Z,66.53
2022-08-22T09:43:45.163Z,67.51
2022-08-22T09:44:41.993Z,67.02
2022-08-22T09:45:42.893Z,67.15
2022-08-22T09:46:42.066Z,66.66
2022-08-22T09:47:42.063Z,66.47
2022-08-22T09:48:42.542Z,67.29
2022-08-22T09:49:42.038Z,65.39
2022-08-22T09:50:42.047Z,64.61
2022-08-22T09:51:42.118Z,65.43
2022-08-22T09:52:42.063Z,64.55
2022-08-22T09:53:42.135Z,64.55
2022-08-22T09:54:42.100Z,64.45
2022-08-22T09:55:42.125Z,63.73
2022-08-22T09:56:42.138Z,63.34
2022-08-22T09:57:42.128Z,63.15
2022-08-22T09:58:42.128Z,63.64
2022-08-22T09:59:42.165Z,63.51
2022-08-22T10:00:42.198Z,64.48
2022-08-22T10:01:42.362Z,65.36
2022-08-22T10:02:43.272Z,64.58
2022-08-22T10:03:42.183Z,64.65
2022-08-22T10:04:42.212Z,64.75
2022-08-22T10:05:44.415Z,65.30
2022-08-22T10:06:42.193Z,65.50
2022-08-22T10:07:42.193Z,65.56
2022-08-22T10:08:42.227Z,66.24
2022-08-22T10:09:42.235Z,66.56
2022-08-22T10:10:42.248Z,66.34
2022-08-22T10:11:42.456Z,66.56
2022-08-22T10:12:42.264Z,65.75
2022-08-22T10:13:42.280Z,65.85
2022-08-22T10:14:42.249Z,65.82
2022-08-22T10:15:42.308Z,66.14
2022-08-22T10:16:42.301Z,65.66
2022-08-22T10:17:42.264Z,65.36
2022-08-22T10:18:52.470Z,64.39
2022-08-22T10:19:42.290Z,64.49
2022-08-22T10:20:42.311Z,63.61
2022-08-22T10:21:42.295Z,64.20
2022-08-22T10:22:42.319Z,64.20
2022-08-22T10:23:42.354Z,64.62
2022-08-22T10:24:43.940Z,64.13
2022-08-22T10:25:42.441Z,64.45
2022-08-22T10:26:42.363Z,63.67
2022-08-22T10:27:42.331Z,63.87
2022-08-22T10:28:42.364Z,63.57
2022-08-22T10:29:42.387Z,63.57
2022-08-22T10:30:42.347Z,61.95
2022-08-22T10:31:58.541Z,60.88
2022-08-22T10:32:42.860Z,61.27
2022-08-22T10:33:42.407Z,61.76
2022-08-22T10:34:42.385Z,61.53
2022-08-22T10:35:42.398Z,61.43
2022-08-22T10:36:42.394Z,61.53
2022-08-22T10:37:46.171Z,61.33
2022-08-22T10:38:44.172Z,62.21
2022-08-22T10:39:43.955Z,61.99
2022-08-22T10:40:42.430Z,62.08
2022-08-22T10:41:42.423Z,62.76
2022-08-22T10:42:42.452Z,63.32
2022-08-22T10:43:42.430Z,63.02
2022-08-22T10:44:42.439Z,63.45
2022-08-22T10:45:42.483Z,62.96
2022-08-22T10:46:42.474Z,61.89
2022-08-22T10:47:42.519Z,62.18
2022-08-22T10:48:42.504Z,62.28
2022-08-22T10:49:42.471Z,62.38
2022-08-22T10:50:42.932Z,62.86
2022-08-22T10:51:42.538Z,63.15
2022-08-22T10:52:42.498Z,63.06
2022-08-22T10:53:42.536Z,63.48
2022-08-22T10:54:42.511Z,62.86
2022-08-22T10:55:42.583Z,62.12
2022-08-22T10:56:43.760Z,62.70
2022-08-22T10:57:42.563Z,61.66
2022-08-22T10:58:44.058Z,60.71
2022-08-22T10:59:42.555Z,61.07
2022-08-22T11:00:46.171Z,60.22
2022-08-22T11:01:42.602Z,60.46
2022-08-22T11:02:44.993Z,60.46
2022-08-22T11:03:42.629Z,61.14
2022-08-22T11:04:42.601Z,60.65
2022-08-22T11:05:42.678Z,60.36
2022-08-22T11:06:44.815Z,60.94
2022-08-22T11:07:42.625Z,60.68
2022-08-22T11:08:42.596Z,60.06
2022-08-22T11:09:42.623Z,60.26
2022-08-22T11:10:42.636Z,61.17
2022-08-22T11:11:42.639Z,61.07
2022-08-22T11:12:42.641Z,60.58
2022-08-22T11:13:43.514Z,59.51
2022-08-22T11:14:42.684Z,59.93
2022-08-22T11:15:42.678Z,59.54
2022-08-22T11:16:42.671Z,58.98
2022-08-22T11:17:46.343Z,59.47
2022-08-22T11:18:42.662Z,59.25
2022-08-22T11:19:42.696Z,59.74
2022-08-22T11:20:42.718Z,59.64
2022-08-22T11:21:42.740Z,58.27
2022-08-22T11:22:42.704Z,59.12
2022-08-22T11:23:42.741Z,59.64
2022-08-22T11:24:55.817Z,59.44
2022-08-22T11:25:42.738Z,61.10
2022-08-22T11:26:46.824Z,59.74
2022-08-22T11:27:42.739Z,59.67
2022-08-22T11:28:42.727Z,59.28
2022-08-22T11:29:44.213Z,59.08
2022-08-22T11:30:45.231Z,58.69
2022-08-22T11:31:47.350Z,59.77
2022-08-22T11:32:42.788Z,59.18
2022-08-22T11:33:47.463Z,59.08
2022-08-22T11:34:42.763Z,58.89
2022-08-22T11:35:42.759Z,59.18
2022-08-22T11:36:42.781Z,59.47
2022-08-22T11:37:43.766Z,59.38
2022-08-22T11:38:42.780Z,58.30
2022-08-22T11:39:42.850Z,58.30
2022-08-22T11:40:42.866Z,59.18
2022-08-22T11:41:42.798Z,58.89
2022-08-22T11:42:59.088Z,59.08
2022-08-22T11:43:42.832Z,59.08
2022-08-22T11:44:50.212Z,59.38
2022-08-22T11:45:42.827Z,58.79
2022-08-22T11:46:42.838Z,58.40
2022-08-22T11:47:42.882Z,59.28
2022-08-22T11:48:42.878Z,58.50
2022-08-22T11:49:42.882Z,58.69
2022-08-22T11:50:42.878Z,58.79
2022-08-22T11:51:42.898Z,59.05
2022-08-22T11:52:42.900Z,58.95
2022-08-22T11:53:42.899Z,59.74
2022-08-22T11:54:42.924Z,59.77
2022-08-22T11:55:42.890Z,59.77
2022-08-22T11:56:42.906Z,58.79
2022-08-22T11:57:44.975Z,58.30
2022-08-22T12:00:16.622Z,58.86
2022-08-22T12:01:17.423Z,59.25
2022-08-22T12:03:10.411Z,60.55
2022-08-22T12:04:10.411Z,59.28
2022-08-22T12:06:04.510Z,59.57
2022-08-22T12:07:04.504Z,59.57
2022-08-22T12:08:58.653Z,58.27
2022-08-22T12:09:58.678Z,59.44
2022-08-22T12:11:52.444Z,60.32
2022-08-22T12:12:52.458Z,59.83
2022-08-22T12:14:46.557Z,58.50
2022-08-22T12:15:46.553Z,59.86
2022-08-22T12:17:55.364Z,58.79
2022-08-22T12:18:40.359Z,58.50
2022-08-22T12:20:34.290Z,57.52
2022-08-22T12:21:34.288Z,58.98
2022-08-22T12:23:49.429Z,58.89
2022-08-22T12:24:28.427Z,59.59
2022-08-22T12:26:22.358Z,58.42
2022-08-22T12:27:28.751Z,58.52
2022-08-22T12:29:16.966Z,57.64
2022-08-22T12:30:16.554Z,57.35
2022-08-22T12:32:10.685Z,58.26
2022-08-22T12:33:10.686Z,58.55
2022-08-22T12:35:13.776Z,55.91
2022-08-22T12:36:04.854Z,55.79
2022-08-22T12:37:58.292Z,57.28
2022-08-22T12:38:58.292Z,55.79
2022-08-22T12:40:52.499Z,57.54
2022-08-22T12:41:52.505Z,55.98
2022-08-22T12:43:46.644Z,55.71
2022-08-22T12:44:46.641Z,55.52
2022-08-22T12:46:46.754Z,56.30
2022-08-22T12:47:42.299Z,55.52
2022-08-22T12:49:34.539Z,56.01
2022-08-22T12:50:34.508Z,56.01
2022-08-22T12:52:28.700Z,56.60
2022-08-22T12:53:28.790Z,56.72
2022-08-22T12:55:24.972Z,57.01
2022-08-22T12:56:22.690Z,56.43
2022-08-22T12:58:17.808Z,55.74
2022-08-22T12:59:17.711Z,55.45
2022-08-22T13:01:11.072Z,55.94
2022-08-22T13:02:10.980Z,55.84
2022-08-22T13:04:05.086Z,55.94
2022-08-22T13:05:05.084Z,56.65
2022-08-22T13:06:58.965Z,55.38